Time;durP1;ratioP1;P1;durP2;ratioP2;P2;SDS_P1;SDS_P2;PMS_P1;PMS_P2;Temp;Humidity;BMP_temperature;BMP_pressure;BME280_temperature;BME280_humidity;BME280_pressure;Samples;Min_cycle;Max_cycle;Signal;HPM_P1;HPM_P2
2022/05/29 00:02:06;;;;;;;6.63;2.87;;;10.80;99.90;;;;;;5082308;28;20216;-69
2022/05/29 00:04:33;;;;;;;6.00;3.00;;;10.80;99.90;;;;;;5079887;28;20235;-69
2022/05/29 00:07:00;;;;;;;5.13;2.67;;;10.80;99.90;;;;;;5083261;28;20285;-69
2022/05/29 00:09:31;;;;;;;5.83;2.90;;;10.80;99.90;;;;;;5085501;28;20287;-69
2022/05/29 00:11:59;;;;;;;3.77;2.60;;;10.80;99.90;;;;;;5079778;28;20202;-68
2022/05/29 00:14:26;;;;;;;8.20;3.00;;;10.80;99.90;;;;;;5081248;28;20231;-69
2022/05/29 00:16:53;;;;;;;4.23;2.70;;;10.80;99.90;;;;;;5079898;28;20209;-69
2022/05/29 00:19:21;;;;;;;7.80;3.47;;;10.80;99.90;;;;;;5081217;28;20646;-69
2022/05/29 00:21:48;;;;;;;7.23;4.13;;;10.80;99.90;;;;;;5079385;28;20212;-69
2022/05/29 00:24:16;;;;;;;6.50;3.00;;;10.80;99.90;;;;;;5080893;28;20558;-69
2022/05/29 00:26:43;;;;;;;5.27;3.10;;;10.80;99.90;;;;;;5081078;28;20633;-69
2022/05/29 00:29:10;;;;;;;7.37;3.20;;;10.80;99.90;;;;;;5079259;28;20316;-69
2022/05/29 00:31:37;;;;;;;7.03;3.43;;;10.80;99.90;;;;;;5071726;28;20213;-69
2022/05/29 00:34:04;;;;;;;8.67;3.10;;;10.80;99.90;;;;;;5080543;28;20197;-70
2022/05/29 00:36:35;;;;;;;5.97;3.03;;;10.80;99.90;;;;;;5080067;28;20209;-69
2022/05/29 00:39:02;;;;;;;3.67;2.47;;;10.80;99.90;;;;;;5080986;28;20571;-69
2022/05/29 00:41:32;;;;;;;5.60;3.00;;;10.70;99.90;;;;;;5081111;28;20213;-69
2022/05/29 00:44:13;;;;;;;5.00;2.70;;;10.80;99.90;;;;;;5077053;28;20652;-69
2022/05/29 00:46:44;;;;;;;5.17;2.90;;;10.70;99.90;;;;;;5067957;28;20212;-69
2022/05/29 00:49:13;;;;;;;2.77;2.47;;;10.80;99.90;;;;;;5081080;28;20214;-69
2022/05/29 00:51:47;;;;;;;4.13;2.40;;;10.80;99.90;;;;;;5080491;28;20204;-69
2022/05/29 00:54:16;;;;;;;3.37;2.37;;;10.70;99.90;;;;;;5078625;28;20229;-69
2022/05/29 00:56:44;;;;;;;3.97;2.43;;;10.80;99.90;;;;;;5079485;28;20217;-69
2022/05/29 00:59:15;;;;;;;6.60;2.50;;;10.80;99.90;;;;;;5079820;28;20296;-69
2022/05/29 01:01:43;;;;;;;5.43;2.40;;;10.80;99.90;;;;;;5078278;28;20240;-72
2022/05/29 01:04:11;;;;;;;2.20;2.00;;;10.80;99.90;;;;;;5076037;28;20308;-73
2022/05/29 01:06:38;;;;;;;4.63;2.53;;;10.80;99.90;;;;;;5075686;28;20209;-72
2022/05/29 01:09:08;;;;;;;5.60;2.20;;;10.80;99.90;;;;;;5078165;28;20201;-72
2022/05/29 01:11:50;;;;;;;4.10;1.77;;;10.80;99.90;;;;;;5077447;28;20201;-72
2022/05/29 01:14:26;;;;;;;4.53;2.30;;;10.80;99.90;;;;;;5075701;28;20623;-72
2022/05/29 01:17:02;;;;;;;3.07;1.90;;;10.80;99.90;;;;;;5077347;28;20232;-72
2022/05/29 01:19:50;;;;;;;3.27;2.60;;;10.80;99.90;;;;;;5074197;28;20311;-72
2022/05/29 01:22:43;;;;;;;3.43;1.80;;;10.80;99.90;;;;;;5070709;28;20190;-73
2022/05/29 01:25:49;;;;;;;3.13;1.93;;;10.80;99.90;;;;;;5071287;28;20224;-72
2022/05/29 01:28:36;;;;;;;4.00;1.70;;;10.80;99.90;;;;;;5076186;28;20260;-72
2022/05/29 01:31:07;;;;;;;5.57;2.00;;;10.80;99.90;;;;;;5070021;28;20208;-72
2022/05/29 01:33:42;;;;;;;2.43;1.70;;;10.80;99.90;;;;;;5081133;28;20710;-73
2022/05/29 01:36:15;;;;;;;4.23;1.83;;;10.80;99.90;;;;;;5077181;28;20264;-72
2022/05/29 01:38:48;;;;;;;2.83;1.90;;;10.80;99.90;;;;;;5070220;28;20215;-72
2022/05/29 01:41:22;;;;;;;3.50;1.63;;;10.80;99.90;;;;;;5070688;28;20193;-72
2022/05/29 01:43:56;;;;;;;3.23;1.67;;;10.80;99.90;;;;;;5084228;28;20766;-71
2022/05/29 01:46:27;;;;;;;4.30;1.70;;;10.80;99.90;;;;;;5069199;28;20279;-72
2022/05/29 01:48:58;;;;;;;2.33;1.57;;;10.80;99.90;;;;;;5072888;28;20244;-72
2022/05/29 01:51:32;;;;;;;5.37;1.90;;;10.80;99.90;;;;;;5074294;28;20666;-72
2022/05/29 01:54:04;;;;;;;3.10;2.50;;;10.80;99.90;;;;;;5068235;28;20730;-72
2022/05/29 01:56:34;;;;;;;3.80;1.40;;;10.80;99.90;;;;;;5077820;28;20639;-73
2022/05/29 01:59:08;;;;;;;3.67;1.70;;;10.70;99.90;;;;;;5088675;28;20234;-72
2022/05/29 02:01:40;;;;;;;2.17;1.60;;;10.80;99.90;;;;;;5082601;28;20205;-72
2022/05/29 02:04:10;;;;;;;2.50;1.90;;;10.80;99.90;;;;;;5080103;28;20218;-72
2022/05/29 02:09:28;;;;;;;2.53;1.90;;;10.80;99.90;;;;;;5076503;28;20644;-72
2022/05/29 02:12:00;;;;;;;3.47;1.80;;;10.70;99.90;;;;;;5077616;28;20752;-72
2022/05/29 02:14:35;;;;;;;2.83;1.60;;;10.80;99.90;;;;;;5080896;28;20709;-72
2022/05/29 02:17:06;;;;;;;5.03;1.63;;;10.80;99.90;;;;;;5080691;28;20211;-73
2022/05/29 02:19:36;;;;;;;3.80;1.70;;;10.80;99.90;;;;;;5086098;28;20201;-72
2022/05/29 02:22:07;;;;;;;7.30;2.30;;;10.80;99.90;;;;;;5082964;28;20633;-71
2022/05/29 02:24:37;;;;;;;3.00;1.90;;;10.80;99.90;;;;;;5069166;28;20240;-72
2022/05/29 02:27:10;;;;;;;2.87;2.10;;;10.80;99.90;;;;;;5076830;28;20236;-71
2022/05/29 02:29:39;;;;;;;4.73;2.10;;;10.80;99.90;;;;;;5079687;28;20339;-71
2022/05/29 02:32:14;;;;;;;3.73;1.93;;;10.80;99.90;;;;;;5076232;28;20275;-72
2022/05/29 02:34:50;;;;;;;4.40;2.10;;;10.80;99.90;;;;;;5085457;28;20292;-72
2022/05/29 02:37:24;;;;;;;3.57;1.97;;;10.80;99.90;;;;;;5076149;28;20284;-71
2022/05/29 02:40:02;;;;;;;3.33;1.60;;;10.80;99.90;;;;;;5074298;28;20205;-72
2022/05/29 02:42:38;;;;;;;4.57;2.00;;;10.80;99.90;;;;;;5074118;28;20211;-72
2022/05/29 02:45:14;;;;;;;4.80;1.80;;;10.80;99.90;;;;;;5074419;28;20224;-72
2022/05/29 02:47:51;;;;;;;3.40;1.77;;;10.80;99.90;;;;;;5066475;28;20300;-72
2022/05/29 02:50:40;;;;;;;5.47;2.20;;;10.80;99.90;;;;;;5068756;28;20684;-72
2022/05/29 02:53:10;;;;;;;5.00;2.17;;;10.80;99.90;;;;;;5070900;28;20573;-72
2022/05/29 02:55:38;;;;;;;3.10;1.50;;;10.80;99.90;;;;;;5075112;28;20201;-72
2022/05/29 02:58:09;;;;;;;5.23;1.93;;;10.80;99.90;;;;;;5073960;28;20209;-72
2022/05/29 03:00:49;;;;;;;2.40;2.20;;;10.80;99.90;;;;;;5075642;28;20223;-73
2022/05/29 03:03:29;;;;;;;4.07;1.93;;;10.80;99.90;;;;;;5076465;28;20197;-72
2022/05/29 03:06:07;;;;;;;3.47;1.90;;;10.80;99.90;;;;;;5075353;28;20296;-73
2022/05/29 03:08:47;;;;;;;2.30;2.00;;;10.90;99.90;;;;;;5075998;28;20732;-72
2022/05/29 03:11:22;;;;;;;4.43;2.07;;;10.90;99.90;;;;;;5075520;28;20196;-72
2022/05/29 03:13:53;;;;;;;3.90;2.10;;;10.90;99.90;;;;;;5073641;28;20205;-73
2022/05/29 03:16:30;;;;;;;2.97;2.07;;;10.90;99.90;;;;;;5072254;28;20243;-73
2022/05/29 03:19:01;;;;;;;4.80;2.10;;;10.90;99.90;;;;;;5075141;28;20561;-73
2022/05/29 03:21:37;;;;;;;4.57;2.03;;;10.90;99.90;;;;;;5074319;28;20276;-73
2022/05/29 03:24:18;;;;;;;3.20;2.00;;;11.00;99.90;;;;;;5067078;28;20205;-72
2022/05/29 03:26:53;;;;;;;3.03;1.80;;;11.00;99.90;;;;;;5077659;28;20208;-72
2022/05/29 03:29:27;;;;;;;5.77;2.30;;;10.90;99.90;;;;;;5076656;28;20236;-72
2022/05/29 03:31:57;;;;;;;4.23;2.57;;;10.90;99.90;;;;;;5076095;28;20295;-72
2022/05/29 03:34:24;;;;;;;4.03;2.33;;;11.00;99.90;;;;;;5076204;28;20205;-72
2022/05/29 03:36:52;;;;;;;2.90;2.13;;;11.00;99.90;;;;;;5080919;28;20228;-72
2022/05/29 03:39:20;;;;;;;4.27;2.33;;;11.00;99.90;;;;;;5073409;28;20201;-73
2022/05/29 03:41:48;;;;;;;2.63;2.00;;;11.00;99.90;;;;;;5076276;28;20259;-73
2022/05/29 03:44:17;;;;;;;4.30;2.13;;;11.00;99.90;;;;;;5076011;28;20225;-73
2022/05/29 03:46:45;;;;;;;5.23;2.50;;;11.10;99.90;;;;;;5066809;28;20233;-73
2022/05/29 03:49:15;;;;;;;3.77;2.10;;;11.00;99.90;;;;;;5079533;28;20309;-72
2022/05/29 03:51:43;;;;;;;3.70;1.73;;;11.10;99.90;;;;;;5078250;28;20205;-72
2022/05/29 03:54:10;;;;;;;4.03;1.97;;;11.10;99.90;;;;;;5075720;28;20197;-72
2022/05/29 03:56:37;;;;;;;2.37;2.00;;;11.20;99.90;;;;;;5075584;28;20212;-72
2022/05/29 03:59:05;;;;;;;4.17;2.07;;;11.20;99.90;;;;;;5070307;28;20648;-72
2022/05/29 04:01:33;;;;;;;5.07;2.10;;;11.20;99.90;;;;;;5075658;28;20213;-71
2022/05/29 04:04:00;;;;;;;5.37;2.13;;;11.20;99.90;;;;;;5068972;28;20244;-73
2022/05/29 04:06:30;;;;;;;4.87;2.20;;;11.20;99.90;;;;;;5073551;28;20309;-72
2022/05/29 04:14:29;;;;;;;2.70;1.90;;;11.40;99.90;;;;;;5074947;28;20235;-72
2022/05/29 04:16:56;;;;;;;4.03;2.00;;;11.40;99.90;;;;;;5067581;28;20228;-72
2022/05/29 04:19:23;;;;;;;4.23;2.10;;;11.40;99.90;;;;;;5077299;28;20233;-72
2022/05/29 04:21:51;;;;;;;5.47;2.27;;;11.40;99.90;;;;;;5079160;28;20242;-72
2022/05/29 04:24:19;;;;;;;3.43;1.77;;;11.40;99.90;;;;;;5074823;28;20213;-72
2022/05/29 04:26:46;;;;;;;2.50;1.80;;;11.40;99.90;;;;;;5078763;28;20293;-72
2022/05/29 04:29:13;;;;;;;2.23;1.93;;;11.50;99.90;;;;;;5077710;28;20283;-73
2022/05/29 04:32:59;;;;;;;9.40;2.13;;;11.40;99.90;;;;;;5077764;28;20205;-72
2022/05/29 04:34:27;;;;;;;6.37;2.20;;;11.40;99.90;;;;;;5073360;28;20202;-73
2022/05/29 04:36:55;;;;;;;3.00;1.80;;;11.40;99.90;;;;;;5077824;28;20193;-73
2022/05/29 04:39:22;;;;;;;6.67;1.93;;;11.40;99.90;;;;;;5078526;28;20700;-73
2022/05/29 04:41:49;;;;;;;4.63;2.10;;;11.40;99.90;;;;;;5076592;28;20205;-72
2022/05/29 04:44:16;;;;;;;5.93;2.63;;;11.40;99.90;;;;;;5079082;28;20247;-72
2022/05/29 04:46:43;;;;;;;5.20;2.10;;;11.40;99.90;;;;;;5078384;28;20724;-73
2022/05/29 04:49:10;;;;;;;7.03;2.37;;;11.40;99.90;;;;;;5077932;28;20238;-72
2022/05/29 04:51:37;;;;;;;5.23;2.30;;;11.40;99.90;;;;;;5077119;28;20209;-72
2022/05/29 04:54:05;;;;;;;5.57;2.83;;;11.50;99.90;;;;;;5076936;28;20211;-72
2022/05/29 04:56:32;;;;;;;5.47;2.63;;;11.50;99.90;;;;;;5078150;28;20313;-72
2022/05/29 04:58:59;;;;;;;4.70;2.40;;;11.50;99.90;;;;;;5077872;28;20216;-72
2022/05/29 05:01:26;;;;;;;3.80;2.87;;;11.50;99.90;;;;;;5076386;28;20554;-72
2022/05/29 05:03:54;;;;;;;5.33;2.10;;;11.50;99.90;;;;;;5078462;28;20204;-72
2022/05/29 05:06:21;;;;;;;5.77;2.23;;;11.50;99.90;;;;;;5070993;28;20556;-74
2022/05/29 05:08:48;;;;;;;4.27;2.40;;;11.60;99.90;;;;;;5080051;28;20206;-72
2022/05/29 05:11:16;;;;;;;4.17;2.50;;;11.50;99.90;;;;;;5075098;28;20252;-72
2022/05/29 05:13:43;;;;;;;4.67;2.70;;;11.60;99.90;;;;;;5077321;28;20217;-72
2022/05/29 05:16:10;;;;;;;6.30;2.73;;;11.60;99.90;;;;;;5075402;28;20349;-72
2022/05/29 05:18:37;;;;;;;4.67;2.50;;;11.60;99.90;;;;;;5076967;28;20209;-73
2022/05/29 05:21:05;;;;;;;5.10;2.43;;;11.80;99.90;;;;;;5076528;28;20217;-72
2022/05/29 05:23:33;;;;;;;5.17;2.90;;;11.80;99.90;;;;;;5077231;28;20209;-72
2022/05/29 05:26:00;;;;;;;4.60;2.40;;;11.80;99.90;;;;;;5072287;28;20225;-73
2022/05/29 05:28:29;;;;;;;7.33;2.60;;;12.00;99.90;;;;;;5077970;28;20725;-72
2022/05/29 05:30:55;;;;;;;4.70;2.63;;;12.10;99.90;;;;;;5075273;28;20205;-71
2022/05/29 05:33:22;;;;;;;5.90;2.80;;;12.10;99.90;;;;;;5066676;28;20296;-73
2022/05/29 05:35:49;;;;;;;3.87;2.73;;;12.20;99.90;;;;;;5077094;28;20633;-72
2022/05/29 05:38:16;;;;;;;6.07;3.30;;;12.30;99.90;;;;;;5066886;28;20293;-72
2022/05/29 05:40:43;;;;;;;4.33;3.03;;;12.30;99.90;;;;;;5078069;28;20219;-72
2022/05/29 05:43:10;;;;;;;6.80;3.40;;;12.40;99.90;;;;;;5076536;28;20228;-72
2022/05/29 05:45:42;;;;;;;4.93;3.40;;;12.40;99.90;;;;;;5079726;28;20240;-73
2022/05/29 05:48:10;;;;;;;6.70;3.10;;;12.50;99.90;;;;;;5073998;28;20197;-72
2022/05/29 05:50:38;;;;;;;6.80;3.57;;;12.40;99.90;;;;;;5073791;28;20270;-71
2022/05/29 05:53:05;;;;;;;6.57;4.13;;;12.40;99.90;;;;;;5082683;28;20204;-72
2022/05/29 05:55:32;;;;;;;8.53;3.97;;;12.40;99.90;;;;;;5075460;28;20237;-72
2022/05/29 05:57:59;;;;;;;8.20;4.57;;;12.40;99.90;;;;;;5078235;28;20219;-73
2022/05/29 06:00:26;;;;;;;7.87;4.27;;;12.40;99.90;;;;;;5081454;28;20196;-72
2022/05/29 06:02:54;;;;;;;8.97;4.80;;;12.40;99.90;;;;;;5086535;28;20228;-72
2022/05/29 06:05:21;;;;;;;7.40;4.23;;;12.40;99.90;;;;;;5097789;28;20221;-73
2022/05/29 06:07:50;;;;;;;7.63;4.80;;;12.50;99.90;;;;;;5084560;28;20231;-72
2022/05/29 06:10:18;;;;;;;5.87;3.83;;;12.50;99.90;;;;;;5084140;28;20657;-71
2022/05/29 06:12:45;;;;;;;6.73;4.27;;;12.50;99.90;;;;;;5080877;28;20573;-73
2022/05/29 06:15:13;;;;;;;8.57;3.97;;;12.60;99.90;;;;;;5078963;28;20767;-73
2022/05/29 06:17:40;;;;;;;6.17;3.87;;;12.60;99.90;;;;;;5091233;28;20326;-73
2022/05/29 06:20:10;;;;;;;7.80;4.63;;;12.70;99.90;;;;;;5088261;28;20228;-72
2022/05/29 06:22:37;;;;;;;11.57;5.67;;;12.90;99.90;;;;;;5082508;28;20204;-73
2022/05/29 06:25:05;;;;;;;8.13;4.67;;;12.90;99.90;;;;;;5090792;28;20224;-72
2022/05/29 06:27:36;;;;;;;6.37;3.97;;;12.90;99.90;;;;;;5088011;28;20247;-71
2022/05/29 06:30:03;;;;;;;6.13;4.20;;;12.90;99.90;;;;;;5083433;28;21010;-72
2022/05/29 06:32:30;;;;;;;7.83;3.90;;;13.00;99.90;;;;;;5088374;28;20205;-71
2022/05/29 06:34:57;;;;;;;8.27;4.50;;;13.10;99.90;;;;;;5082001;28;20638;-71
2022/05/29 06:37:25;;;;;;;5.70;3.70;;;13.10;99.90;;;;;;5077279;28;20235;-72
2022/05/29 06:39:52;;;;;;;7.47;3.90;;;13.20;99.90;;;;;;5073541;28;20243;-72
2022/05/29 06:42:19;;;;;;;7.00;3.43;;;13.30;99.90;;;;;;5075626;28;20272;-72
2022/05/29 06:44:46;;;;;;;5.53;3.40;;;13.30;99.90;;;;;;5075576;28;20307;-74
2022/05/29 06:47:15;;;;;;;5.00;3.33;;;13.30;99.90;;;;;;5075925;28;20240;-72
2022/05/29 06:49:42;;;;;;;3.87;2.90;;;13.30;99.90;;;;;;5083391;28;20221;-73
2022/05/29 06:52:12;;;;;;;5.47;3.17;;;13.30;99.90;;;;;;5076380;28;20287;-71
2022/05/29 06:54:40;;;;;;;8.57;3.50;;;13.40;99.90;;;;;;5070158;28;20236;-71
2022/05/29 06:57:08;;;;;;;6.40;2.90;;;13.50;99.90;;;;;;5068840;28;20205;-71
2022/05/29 07:06:58;;;;;;;8.77;3.50;;;13.60;99.90;;;;;;5074336;28;20255;-71
2022/05/29 07:07:54;;;;;;;4.83;2.70;;;14.00;99.90;;;;;;5074645;28;20196;-71
2022/05/29 07:10:22;;;;;;;4.73;2.70;;;14.10;99.90;;;;;;5072994;28;20217;-71
2022/05/29 07:12:50;;;;;;;5.17;2.80;;;14.20;99.90;;;;;;5073041;28;20205;-71
2022/05/29 07:15:18;;;;;;;5.30;2.97;;;14.40;99.90;;;;;;5074461;28;20237;-70
2022/05/29 07:17:45;;;;;;;5.20;2.60;;;14.50;99.90;;;;;;5061185;28;20295;-70
2022/05/29 07:20:13;;;;;;;6.97;2.87;;;14.60;99.90;;;;;;5075443;28;20316;-71
2022/05/29 07:22:42;;;;;;;6.90;2.40;;;14.60;99.90;;;;;;5067273;28;20641;-69
2022/05/29 07:25:09;;;;;;;5.47;2.50;;;14.60;99.90;;;;;;5069848;28;20256;-68
2022/05/29 07:27:38;;;;;;;9.93;3.03;;;14.60;99.90;;;;;;5062360;28;20213;-70
2022/05/29 07:30:05;;;;;;;4.33;2.37;;;14.60;99.90;;;;;;5066008;28;20655;-68
2022/05/29 07:32:33;;;;;;;3.93;2.43;;;14.60;99.90;;;;;;5063429;28;20304;-69
2022/05/29 07:35:00;;;;;;;5.40;2.60;;;14.70;99.90;;;;;;5063699;28;20214;-68
2022/05/29 07:37:27;;;;;;;6.23;2.70;;;14.70;99.90;;;;;;5073728;28;20243;-71
2022/05/29 07:39:54;;;;;;;4.13;2.33;;;14.80;99.90;;;;;;5074094;28;20680;-69
2022/05/29 07:45:10;;;;;;;7.40;2.27;;;14.90;99.90;;;;;;5073146;28;20224;-68
2022/05/29 07:47:40;;;;;;;4.30;2.40;;;15.00;99.90;;;;;;5072441;28;20205;-71
2022/05/29 07:50:09;;;;;;;4.13;2.40;;;15.10;99.90;;;;;;5071985;28;20213;-72
2022/05/29 07:52:36;;;;;;;6.70;2.50;;;15.10;99.90;;;;;;5077749;28;20205;-69
2022/05/29 07:55:04;;;;;;;4.60;2.60;;;15.10;99.90;;;;;;5087962;28;20661;-70
2022/05/29 07:57:31;;;;;;;4.20;2.47;;;15.20;99.90;;;;;;5081864;28;20216;-70
2022/05/29 07:59:58;;;;;;;4.70;2.30;;;15.20;99.90;;;;;;5065171;28;20671;-70
2022/05/29 08:02:26;;;;;;;5.40;2.33;;;15.20;99.90;;;;;;5083756;28;20240;-70
2022/05/29 08:04:56;;;;;;;5.93;2.43;;;15.30;99.90;;;;;;5077856;28;20215;-71
2022/05/29 08:07:23;;;;;;;4.53;2.30;;;15.30;99.90;;;;;;5082775;28;20709;-72
2022/05/29 08:09:50;;;;;;;6.40;2.40;;;15.40;99.90;;;;;;5073597;28;20225;-72
2022/05/29 08:12:16;;;;;;;6.60;2.40;;;15.50;99.90;;;;;;5068224;28;20232;-71
2022/05/29 08:14:43;;;;;;;6.00;2.70;;;15.60;99.90;;;;;;5077409;28;20284;-71
2022/05/29 08:17:10;;;;;;;3.57;2.40;;;15.60;99.90;;;;;;5076921;28;20632;-71
2022/05/29 08:19:39;;;;;;;4.20;2.67;;;15.60;99.90;;;;;;5074063;28;20207;-72
2022/05/29 08:22:06;;;;;;;5.50;2.73;;;15.60;99.90;;;;;;5074256;28;20231;-71
2022/05/29 08:32:58;;;;;;;3.93;1.97;;;16.20;99.90;;;;;;5083002;28;20253;-71
2022/05/29 08:35:27;;;;;;;4.17;2.00;;;16.30;99.90;;;;;;5078107;28;20269;-72
2022/05/29 08:37:54;;;;;;;5.53;2.20;;;16.40;99.90;;;;;;5074732;28;20205;-72
2022/05/29 08:40:22;;;;;;;7.33;2.30;;;16.40;99.90;;;;;;5078066;28;20205;-70
2022/05/29 08:42:49;;;;;;;4.87;1.70;;;16.60;99.90;;;;;;5068962;28;20236;-70
2022/05/29 08:45:18;;;;;;;6.18;2.20;;;16.70;99.90;;;;;;5071425;28;20286;-72
2022/05/29 08:47:46;;;;;;;2.33;1.37;;;16.80;99.90;;;;;;5077175;28;20248;-70
2022/05/29 08:50:19;;;;;;;4.40;1.80;;;17.00;99.90;;;;;;5068088;28;20234;-71
2022/05/29 08:53:01;;;;;;;6.93;2.07;;;17.10;99.90;;;;;;5072244;28;20237;-71
2022/05/29 08:55:32;;;;;;;6.07;2.60;;;17.20;99.90;;;;;;5073445;28;20204;-72
2022/05/29 08:58:13;;;;;;;3.35;1.90;;;17.30;99.90;;;;;;5075074;28;20663;-71
2022/05/29 09:00:50;;;;;;;5.13;1.65;;;17.40;99.90;;;;;;5070045;28;20685;-71
2022/05/29 09:03:39;;;;;;;4.60;1.50;;;17.40;99.90;;;;;;5081372;28;20193;-72
2022/05/29 09:06:09;;;;;;;4.60;1.52;;;17.50;99.90;;;;;;5083824;28;20685;-70
2022/05/29 09:08:45;;;;;;;2.00;1.40;;;17.70;99.90;;;;;;5090603;28;20566;-72
2022/05/29 09:11:18;;;;;;;4.30;1.70;;;17.90;99.90;;;;;;5076273;28;20675;-71
2022/05/29 09:13:51;;;;;;;3.15;2.00;;;18.00;99.90;;;;;;5072516;28;20201;-70
2022/05/29 09:16:21;;;;;;;4.18;2.53;;;18.10;98.80;;;;;;5077185;28;20355;-70
2022/05/29 09:18:57;;;;;;;4.75;1.42;;;18.20;98.20;;;;;;5076655;28;20228;-72
2022/05/29 09:21:27;;;;;;;5.65;1.70;;;18.30;97.30;;;;;;5074778;28;20795;-72
2022/05/29 09:24:03;;;;;;;3.45;1.80;;;18.30;96.30;;;;;;5081567;28;20640;-71
2022/05/29 09:26:36;;;;;;;3.33;1.70;;;18.50;96.40;;;;;;5078461;28;20229;-70
2022/05/29 09:29:04;;;;;;;2.30;1.45;;;18.80;95.90;;;;;;5074680;28;20317;-71
2022/05/29 09:31:32;;;;;;;2.33;1.60;;;19.00;94.20;;;;;;5077785;28;20209;-70
2022/05/29 09:34:00;;;;;;;4.38;1.63;;;19.00;92.90;;;;;;5075342;28;20241;-71
2022/05/29 09:36:31;;;;;;;1.88;1.50;;;19.10;93.00;;;;;;5071929;28;20262;-71
2022/05/29 09:39:09;;;;;;;2.17;1.73;;;19.20;92.70;;;;;;5070925;28;20639;-71
2022/05/29 09:41:41;;;;;;;4.38;1.85;;;19.20;92.80;;;;;;5077511;28;20208;-70
2022/05/29 09:44:12;;;;;;;5.38;1.70;;;19.10;92.80;;;;;;5075625;28;20711;-71
2022/05/29 09:46:40;;;;;;;4.20;1.42;;;19.10;93.20;;;;;;5072268;28;20305;-70
2022/05/29 09:52:10;;;;;;;2.75;1.30;;;19.10;92.70;;;;;;5071126;28;20201;-70
2022/05/29 09:54:43;;;;;;;1.27;0.98;;;19.40;91.30;;;;;;5087006;28;20352;-71
2022/05/29 09:57:13;;;;;;;5.20;1.30;;;19.60;90.70;;;;;;5075152;28;20563;-71
2022/05/29 09:59:44;;;;;;;2.80;1.38;;;19.90;88.40;;;;;;5066694;28;20244;-70
2022/05/29 10:02:23;;;;;;;2.65;1.05;;;20.00;83.70;;;;;;5075911;28;20198;-70
2022/05/29 10:04:52;;;;;;;2.60;1.17;;;19.90;82.90;;;;;;5066068;28;20204;-71
2022/05/29 10:07:32;;;;;;;3.67;1.40;;;19.80;82.50;;;;;;5075320;28;20225;-70
2022/05/29 10:10:02;;;;;;;3.95;1.20;;;19.70;82.60;;;;;;5064163;28;20197;-70
2022/05/29 10:12:41;;;;;;;3.45;1.58;;;19.50;83.70;;;;;;5076037;28;20670;-71
2022/05/29 10:15:15;;;;;;;5.05;1.55;;;19.40;83.60;;;;;;5075651;28;20268;-71
2022/05/29 10:17:43;;;;;;;3.95;1.65;;;19.20;83.80;;;;;;5074947;28;20208;-71
2022/05/29 10:20:29;;;;;;;5.78;1.90;;;19.10;84.50;;;;;;5072197;28;21000;-71
2022/05/29 10:22:57;;;;;;;3.47;1.60;;;19.00;85.90;;;;;;5074967;28;20209;-71
2022/05/29 10:25:27;;;;;;;2.67;1.80;;;19.00;86.80;;;;;;5070398;28;20654;-70
2022/05/29 10:27:57;;;;;;;3.10;1.63;;;19.00;86.60;;;;;;5071668;28;20284;-70
2022/05/29 10:30:35;;;;;;;2.33;1.40;;;19.00;86.70;;;;;;5063333;28;20264;-70
2022/05/29 10:33:06;;;;;;;5.07;1.58;;;19.00;86.90;;;;;;5074551;28;20208;-70
2022/05/29 10:35:36;;;;;;;3.90;1.75;;;19.00;86.30;;;;;;5075094;28;20233;-70
2022/05/29 10:38:24;;;;;;;5.45;1.65;;;19.10;86.60;;;;;;5070502;28;20214;-71
2022/05/29 10:40:54;;;;;;;4.20;1.48;;;19.20;87.50;;;;;;5067094;28;20522;-71
2022/05/29 10:43:48;;;;;;;3.08;1.42;;;19.30;87.40;;;;;;5075008;28;20654;-71
2022/05/29 10:46:18;;;;;;;7.78;1.30;;;19.40;87.20;;;;;;5064638;28;20253;-70
2022/05/29 10:49:14;;;;;;;3.55;1.38;;;19.50;87.30;;;;;;5074160;28;20546;-70
2022/05/29 10:51:55;;;;;;;2.38;1.25;;;19.30;84.70;;;;;;5068496;28;20206;-70
2022/05/29 10:54:33;;;;;;;3.17;1.20;;;19.00;86.20;;;;;;5073138;28;20676;-70
2022/05/29 10:57:21;;;;;;;2.78;1.50;;;18.70;85.00;;;;;;5074572;28;20211;-70
2022/05/29 11:00:14;;;;;;;3.40;1.50;;;18.40;85.50;;;;;;5073628;28;20209;-71
2022/05/29 11:05:59;;;;;;;5.80;2.17;;;18.20;87.90;;;;;;5072946;28;20208;-72
2022/05/29 11:08:38;;;;;;;3.88;1.70;;;18.20;88.70;;;;;;5075069;28;20269;-70
2022/05/29 11:11:21;;;;;;;2.92;1.45;;;18.40;89.40;;;;;;5077982;28;20205;-71
2022/05/29 11:14:07;;;;;;;3.72;1.88;;;18.50;89.50;;;;;;5075196;28;20284;-71
2022/05/29 11:16:44;;;;;;;3.08;1.70;;;18.70;90.00;;;;;;5075787;28;20661;-71
2022/05/29 11:19:25;;;;;;;3.28;1.52;;;19.00;90.00;;;;;;5074501;28;20208;-70
2022/05/29 11:22:02;;;;;;;4.65;1.70;;;19.20;87.90;;;;;;5073384;28;20201;-71
2022/05/29 11:24:57;;;;;;;6.43;1.90;;;19.40;87.50;;;;;;5074101;28;20213;-72
2022/05/29 11:27:41;;;;;;;4.20;1.42;;;19.50;87.80;;;;;;5070732;28;20237;-71
2022/05/29 11:30:15;;;;;;;5.28;1.85;;;19.90;88.00;;;;;;5078638;28;20297;-71
2022/05/29 11:33:13;;;;;;;4.28;1.70;;;19.90;87.40;;;;;;5079331;28;20204;-70
2022/05/29 11:36:05;;;;;;;2.90;1.60;;;19.90;86.20;;;;;;5077175;28;20208;-71
2022/05/29 11:39:01;;;;;;;3.17;1.65;;;19.90;85.70;;;;;;5085606;28;20291;-70
2022/05/29 11:41:33;;;;;;;2.55;1.20;;;19.90;84.60;;;;;;5077820;28;20569;-70
2022/05/29 11:44:06;;;;;;;4.07;1.65;;;20.00;83.60;;;;;;5075784;28;20269;-70
2022/05/29 11:52:24;;;;;;;3.55;1.20;;;20.00;80.30;;;;;;5073629;28;20204;-71
2022/05/29 11:55:00;;;;;;;3.08;1.27;;;20.20;78.30;;;;;;5078255;28;20231;-72
2022/05/29 11:57:32;;;;;;;2.55;1.42;;;20.10;77.60;;;;;;5075295;28;20197;-72
2022/05/29 12:00:06;;;;;;;2.33;1.23;;;20.10;78.00;;;;;;5066503;28;20219;-71
2022/05/29 12:02:42;;;;;;;2.75;1.27;;;20.20;77.30;;;;;;5075334;28;20225;-71
2022/05/29 12:05:27;;;;;;;3.20;1.20;;;20.10;76.20;;;;;;5071122;28;20207;-71
2022/05/29 12:08:03;;;;;;;1.88;1.02;;;20.10;76.10;;;;;;5074892;28;20716;-72
2022/05/29 12:10:38;;;;;;;1.63;0.77;;;20.20;75.10;;;;;;5077510;28;20575;-71
2022/05/29 12:13:10;;;;;;;1.95;1.20;;;20.40;74.30;;;;;;5077434;28;20231;-73
2022/05/29 12:15:37;;;;;;;2.75;1.02;;;20.50;73.10;;;;;;5077358;28;20245;-71
2022/05/29 12:18:10;;;;;;;5.15;1.10;;;20.60;71.80;;;;;;5077823;28;20237;-70
2022/05/29 12:20:42;;;;;;;3.83;1.23;;;20.80;71.40;;;;;;5077434;28;20233;-71
2022/05/29 12:23:27;;;;;;;2.83;1.20;;;20.90;71.20;;;;;;5076023;28;20201;-71
2022/05/29 12:26:00;;;;;;;3.83;1.05;;;21.00;70.20;;;;;;5077319;28;20201;-72
2022/05/29 12:28:34;;;;;;;2.53;1.35;;;21.10;69.90;;;;;;5065021;28;20201;-70
2022/05/29 12:31:02;;;;;;;1.92;1.27;;;21.30;69.90;;;;;;5065211;28;20302;-70
2022/05/29 12:33:32;;;;;;;2.38;1.27;;;21.30;69.60;;;;;;5076572;28;20197;-71
2022/05/29 12:36:10;;;;;;;3.10;1.17;;;21.20;68.00;;;;;;5069379;28;20244;-71
2022/05/29 12:38:51;;;;;;;2.67;1.13;;;21.10;68.10;;;;;;5076616;28;20672;-70
2022/05/29 12:41:50;;;;;;;3.85;1.17;;;21.20;67.80;;;;;;5087845;28;20287;-70
2022/05/29 12:44:42;;;;;;;3.00;1.15;;;21.20;67.80;;;;;;5065517;28;20201;-71
2022/05/29 12:47:22;;;;;;;3.42;1.27;;;21.10;69.00;;;;;;5073641;28;20570;-71
2022/05/29 12:50:20;;;;;;;2.85;1.23;;;20.80;69.70;;;;;;5084924;28;20219;-71
2022/05/29 12:53:13;;;;;;;3.92;1.63;;;20.60;70.90;;;;;;5050270;28;20217;-71
2022/05/29 12:55:58;;;;;;;2.95;1.63;;;20.40;72.00;;;;;;5076719;28;20292;-71
2022/05/29 12:58:55;;;;;;;2.33;1.35;;;20.40;72.60;;;;;;5077036;28;20239;-70
2022/05/29 13:01:46;;;;;;;2.95;1.38;;;20.40;71.90;;;;;;5075139;28;20203;-70
2022/05/29 13:04:55;;;;;;;3.30;1.30;;;20.30;70.60;;;;;;5077315;28;20280;-71
2022/05/29 13:07:26;;;;;;;3.95;1.45;;;20.20;69.80;;;;;;5071638;28;20228;-71
2022/05/29 13:10:18;;;;;;;3.83;1.23;;;20.10;69.80;;;;;;5077660;28;20634;-71
2022/05/29 13:12:50;;;;;;;2.10;0.93;;;20.00;70.20;;;;;;5075390;28;20205;-71
2022/05/29 13:15:30;;;;;;;3.08;1.65;;;20.00;70.40;;;;;;5069286;28;20323;-71
2022/05/29 13:18:01;;;;;;;3.28;1.20;;;19.90;70.50;;;;;;5074577;28;20201;-70
2022/05/29 13:20:29;;;;;;;3.42;1.42;;;19.90;71.00;;;;;;5075511;28;20208;-71
2022/05/29 13:23:00;;;;;;;2.60;1.10;;;19.80;71.10;;;;;;5075189;28;20221;-71
2022/05/29 13:25:29;;;;;;;2.38;1.00;;;19.70;71.60;;;;;;5073356;28;20256;-71
2022/05/29 13:27:57;;;;;;;4.60;1.52;;;19.70;71.60;;;;;;5076028;28;20658;-70
2022/05/29 13:31:09;;;;;;;5.95;1.33;;;19.70;71.90;;;;;;5081449;28;20225;-71
2022/05/29 13:33:56;;;;;;;4.10;1.30;;;19.60;72.60;;;;;;5070678;28;20227;-75
2022/05/29 13:37:06;;;;;;;5.07;1.02;;;19.50;72.50;;;;;;5074636;28;20259;-71
2022/05/29 13:40:02;;;;;;;2.55;1.50;;;19.60;72.90;;;;;;5062475;28;20227;-71
2022/05/29 13:42:39;;;;;;;4.32;1.23;;;19.70;73.50;;;;;;5071450;28;20205;-72
2022/05/29 13:45:43;;;;;;;3.00;1.52;;;19.80;74.20;;;;;;5069093;28;20216;-71
2022/05/29 13:48:17;;;;;;;2.20;0.90;;;19.80;74.70;;;;;;5068764;28;20263;-71
2022/05/29 13:50:52;;;;;;;4.78;0.90;;;19.90;71.50;;;;;;5073440;28;20200;-70
2022/05/29 13:53:48;;;;;;;1.95;0.80;;;19.70;69.60;;;;;;5073420;28;20208;-71
2022/05/29 13:56:18;;;;;;;2.15;1.10;;;19.70;68.80;;;;;;5068360;28;20209;-71